sensor_id;sensor_type;location;lat;lon;timestamp;temperature;humidity
15259;DHT22;34462;51.368;12.364;2022-08-03T00:00:33;19.10;99.90
15259;DHT22;34462;51.368;12.364;2022-08-03T00:03:01;19.10;99.90
15259;DHT22;34462;51.368;12.364;2022-08-03T00:05:30;19.00;99.90
15259;DHT22;34462;51.368;12.364;2022-08-03T00:08:00;19.00;99.90
15259;DHT22;34462;51.368;12.364;2022-08-03T00:10:30;18.90;99.90
15259;DHT22;34462;51.368;12.364;2022-08-03T00:12:59;18.90;99.90
15259;DHT22;34462;51.368;12.364;2022-08-03T00:15:27;19.00;99.90
15259;DHT22;34462;51.368;12.364;2022-08-03T00:17:55;18.90;99.90
15259;DHT22;34462;51.368;12.364;2022-08-03T00:20:23;18.90;99.90
15259;DHT22;34462;51.368;12.364;2022-08-03T00:22:52;18.90;99.90
15259;DHT22;34462;51.368;12.364;2022-08-03T00:25:21;18.90;99.90
15259;DHT22;34462;51.368;12.364;2022-08-03T00:27:49;19.00;99.90
15259;DHT22;34462;51.368;12.364;2022-08-03T00:30:18;19.00;99.90
15259;DHT22;34462;51.368;12.364;2022-08-03T00:32:46;18.90;99.90
15259;DHT22;34462;51.368;12.364;2022-08-03T00:35:15;18.90;99.90
15259;DHT22;34462;51.368;12.364;2022-08-03T00:38:02;18.80;99.90
15259;DHT22;34462;51.368;12.364;2022-08-03T00:40:32;18.80;99.90
15259;DHT22;34462;51.368;12.364;2022-08-03T00:43:02;18.90;99.90
15259;DHT22;34462;51.368;12.364;2022-08-03T00:45:33;18.80;99.90
15259;DHT22;34462;51.368;12.364;2022-08-03T00:48:04;18.90;99.90
15259;DHT22;34462;51.368;12.364;2022-08-03T00:50:54;18.80;99.90
15259;DHT22;34462;51.368;12.364;2022-08-03T00:53:22;18.80;99.90
15259;DHT22;34462;51.368;12.364;2022-08-03T00:55:52;18.70;99.90
15259;DHT22;34462;51.368;12.364;2022-08-03T00:58:21;18.70;99.90
15259;DHT22;34462;51.368;12.364;2022-08-03T01:00:49;18.60;99.90
15259;DHT22;34462;51.368;12.364;2022-08-03T01:03:18;18.70;99.90
15259;DHT22;34462;51.368;12.364;2022-08-03T01:05:52;18.60;99.90
15259;DHT22;34462;51.368;12.364;2022-08-03T01:08:31;18.60;99.90
15259;DHT22;34462;51.368;12.364;2022-08-03T01:11:15;18.60;99.90
15259;DHT22;34462;51.368;12.364;2022-08-03T01:13:56;18.60;99.90
15259;DHT22;34462;51.368;12.364;2022-08-03T01:16:54;18.60;99.90
15259;DHT22;34462;51.368;12.364;2022-08-03T01:19:45;18.60;99.90
15259;DHT22;34462;51.368;12.364;2022-08-03T01:22:50;18.60;99.90
15259;DHT22;34462;51.368;12.364;2022-08-03T01:25:38;18.50;99.90
15259;DHT22;34462;51.368;12.364;2022-08-03T01:28:32;18.50;99.90
15259;DHT22;34462;51.368;12.364;2022-08-03T01:31:25;18.50;99.90
15259;DHT22;34462;51.368;12.364;2022-08-03T01:33:58;18.60;99.90
15259;DHT22;34462;51.368;12.364;2022-08-03T01:36:37;18.50;99.90
15259;DHT22;34462;51.368;12.364;2022-08-03T01:39:11;18.50;99.90
15259;DHT22;34462;51.368;12.364;2022-08-03T01:41:45;18.50;99.90
15259;DHT22;34462;51.368;12.364;2022-08-03T01:44:16;18.50;99.90
15259;DHT22;34462;51.368;12.364;2022-08-03T01:46:58;18.50;99.90
15259;DHT22;34462;51.368;12.364;2022-08-03T01:49:29;18.50;99.90
15259;DHT22;34462;51.368;12.364;2022-08-03T01:52:01;18.50;99.90
15259;DHT22;34462;51.368;12.364;2022-08-03T01:54:35;18.40;99.90
15259;DHT22;34462;51.368;12.364;2022-08-03T01:57:08;18.40;99.90
15259;DHT22;34462;51.368;12.364;2022-08-03T01:59:37;18.40;99.90
15259;DHT22;34462;51.368;12.364;2022-08-03T02:02:11;18.40;99.90
15259;DHT22;34462;51.368;12.364;2022-08-03T02:05:00;18.40;99.90
15259;DHT22;34462;51.368;12.364;2022-08-03T02:07:31;18.40;99.90
15259;DHT22;34462;51.368;12.364;2022-08-03T02:10:03;18.40;99.90
15259;DHT22;34462;51.368;12.364;2022-08-03T02:12:34;18.30;99.90
15259;DHT22;34462;51.368;12.364;2022-08-03T02:15:06;18.30;99.90
15259;DHT22;34462;51.368;12.364;2022-08-03T02:17:37;18.30;99.90
15259;DHT22;34462;51.368;12.364;2022-08-03T02:20:10;18.30;99.90
15259;DHT22;34462;51.368;12.364;2022-08-03T02:22:41;18.30;99.90
15259;DHT22;34462;51.368;12.364;2022-08-03T02:25:13;18.30;99.90
15259;DHT22;34462;51.368;12.364;2022-08-03T02:27:47;18.20;99.90
15259;DHT22;34462;51.368;12.364;2022-08-03T02:30:19;18.30;99.90
15259;DHT22;34462;51.368;12.364;2022-08-03T02:32:54;18.20;99.90
15259;DHT22;34462;51.368;12.364;2022-08-03T02:35:25;18.20;99.90
15259;DHT22;34462;51.368;12.364;2022-08-03T02:38:00;18.20;99.90
15259;DHT22;34462;51.368;12.364;2022-08-03T02:40:32;18.20;99.90
15259;DHT22;34462;51.368;12.364;2022-08-03T02:43:04;18.10;99.90
15259;DHT22;34462;51.368;12.364;2022-08-03T02:45:40;18.10;99.90
15259;DHT22;34462;51.368;12.364;2022-08-03T02:48:15;18.10;99.90
15259;DHT22;34462;51.368;12.364;2022-08-03T02:50:46;18.00;99.90
15259;DHT22;34462;51.368;12.364;2022-08-03T02:53:16;18.00;99.90
15259;DHT22;34462;51.368;12.364;2022-08-03T02:55:47;18.00;99.90
15259;DHT22;34462;51.368;12.364;2022-08-03T02:58:18;17.90;99.90
15259;DHT22;34462;51.368;12.364;2022-08-03T03:00:48;17.90;99.90
15259;DHT22;34462;51.368;12.364;2022-08-03T03:03:20;17.90;99.90
15259;DHT22;34462;51.368;12.364;2022-08-03T03:05:51;17.80;99.90
15259;DHT22;34462;51.368;12.364;2022-08-03T03:08:24;17.80;99.90
15259;DHT22;34462;51.368;12.364;2022-08-03T03:10:56;17.80;99.90
15259;DHT22;34462;51.368;12.364;2022-08-03T03:13:27;17.80;99.90
15259;DHT22;34462;51.368;12.364;2022-08-03T03:15:59;17.80;99.90
15259;DHT22;34462;51.368;12.364;2022-08-03T03:18:32;17.80;99.90
15259;DHT22;34462;51.368;12.364;2022-08-03T03:21:03;17.80;99.90
15259;DHT22;34462;51.368;12.364;2022-08-03T03:23:34;17.80;99.90
15259;DHT22;34462;51.368;12.364;2022-08-03T03:26:05;17.80;99.90
15259;DHT22;34462;51.368;12.364;2022-08-03T03:28:34;17.80;99.90
15259;DHT22;34462;51.368;12.364;2022-08-03T03:31:04;17.80;99.90
15259;DHT22;34462;51.368;12.364;2022-08-03T03:33:35;17.70;99.90
15259;DHT22;34462;51.368;12.364;2022-08-03T03:36:05;17.70;99.90
15259;DHT22;34462;51.368;12.364;2022-08-03T03:38:34;17.70;99.90
15259;DHT22;34462;51.368;12.364;2022-08-03T03:41:03;17.70;99.90
15259;DHT22;34462;51.368;12.364;2022-08-03T03:43:32;17.70;99.90
15259;DHT22;34462;51.368;12.364;2022-08-03T03:46:01;17.80;99.90
15259;DHT22;34462;51.368;12.364;2022-08-03T03:48:29;17.80;99.90
15259;DHT22;34462;51.368;12.364;2022-08-03T03:50:59;17.80;99.90
15259;DHT22;34462;51.368;12.364;2022-08-03T03:53:28;17.80;99.90
15259;DHT22;34462;51.368;12.364;2022-08-03T03:55:56;17.80;99.90
15259;DHT22;34462;51.368;12.364;2022-08-03T03:58:30;17.80;99.90
15259;DHT22;34462;51.368;12.364;2022-08-03T04:00:59;17.70;99.90
15259;DHT22;34462;51.368;12.364;2022-08-03T04:03:27;17.80;99.90
15259;DHT22;34462;51.368;12.364;2022-08-03T04:05:56;17.80;99.90
15259;DHT22;34462;51.368;12.364;2022-08-03T04:08:44;17.80;99.90
15259;DHT22;34462;51.368;12.364;2022-08-03T04:11:35;17.80;99.90
15259;DHT22;34462;51.368;12.364;2022-08-03T04:14:08;17.80;99.90
15259;DHT22;34462;51.368;12.364;2022-08-03T04:16:41;17.80;99.90
15259;DHT22;34462;51.368;12.364;2022-08-03T04:19:16;17.90;99.90
15259;DHT22;34462;51.368;12.364;2022-08-03T04:21:51;17.90;99.90
15259;DHT22;34462;51.368;12.364;2022-08-03T04:24:28;17.90;99.90
15259;DHT22;34462;51.368;12.364;2022-08-03T04:27:02;18.00;99.90
15259;DHT22;34462;51.368;12.364;2022-08-03T04:29:34;18.10;99.90
15259;DHT22;34462;51.368;12.364;2022-08-03T04:32:15;18.10;99.90
15259;DHT22;34462;51.368;12.364;2022-08-03T04:34:44;18.20;99.90
15259;DHT22;34462;51.368;12.364;2022-08-03T04:37:20;18.20;99.90
15259;DHT22;34462;51.368;12.364;2022-08-03T04:39:56;18.20;99.90
15259;DHT22;34462;51.368;12.364;2022-08-03T04:42:31;18.30;99.90
15259;DHT22;34462;51.368;12.364;2022-08-03T04:45:01;18.30;99.90
15259;DHT22;34462;51.368;12.364;2022-08-03T04:47:32;18.40;99.90
15259;DHT22;34462;51.368;12.364;2022-08-03T04:50:01;18.40;99.90
15259;DHT22;34462;51.368;12.364;2022-08-03T04:52:38;18.50;99.90
15259;DHT22;34462;51.368;12.364;2022-08-03T04:55:08;18.50;99.90
15259;DHT22;34462;51.368;12.364;2022-08-03T04:57:37;18.60;99.90
15259;DHT22;34462;51.368;12.364;2022-08-03T05:00:06;18.70;99.90
15259;DHT22;34462;51.368;12.364;2022-08-03T05:02:35;18.80;99.90
15259;DHT22;34462;51.368;12.364;2022-08-03T05:05:04;19.00;99.90
15259;DHT22;34462;51.368;12.364;2022-08-03T05:07:32;19.70;99.90
15259;DHT22;34462;51.368;12.364;2022-08-03T05:10:04;20.90;99.90
15259;DHT22;34462;51.368;12.364;2022-08-03T05:12:46;22.30;99.90
15259;DHT22;34462;51.368;12.364;2022-08-03T05:15:17;23.70;99.90
15259;DHT22;34462;51.368;12.364;2022-08-03T05:17:45;24.60;99.90
15259;DHT22;34462;51.368;12.364;2022-08-03T05:20:13;25.30;99.90
15259;DHT22;34462;51.368;12.364;2022-08-03T05:22:44;25.40;99.90
15259;DHT22;34462;51.368;12.364;2022-08-03T05:25:12;25.00;99.90
15259;DHT22;34462;51.368;12.364;2022-08-03T05:27:46;24.70;99.90
15259;DHT22;34462;51.368;12.364;2022-08-03T05:30:15;24.60;99.90
15259;DHT22;34462;51.368;12.364;2022-08-03T05:32:59;24.20;99.90
15259;DHT22;34462;51.368;12.364;2022-08-03T05:35:28;23.70;99.90
15259;DHT22;34462;51.368;12.364;2022-08-03T05:38:16;23.30;99.90
15259;DHT22;34462;51.368;12.364;2022-08-03T05:40:55;22.90;99.90
15259;DHT22;34462;51.368;12.364;2022-08-03T05:43:44;22.70;99.90
15259;DHT22;34462;51.368;12.364;2022-08-03T05:46:13;22.60;99.90
15259;DHT22;34462;51.368;12.364;2022-08-03T05:48:41;22.50;99.90
15259;DHT22;34462;51.368;12.364;2022-08-03T05:51:09;22.50;99.90
15259;DHT22;34462;51.368;12.364;2022-08-03T05:53:38;22.40;99.90
15259;DHT22;34462;51.368;12.364;2022-08-03T05:56:07;22.40;99.90
15259;DHT22;34462;51.368;12.364;2022-08-03T05:58:43;22.50;99.90
15259;DHT22;34462;51.368;12.364;2022-08-03T06:01:12;22.60;99.90
15259;DHT22;34462;51.368;12.364;2022-08-03T06:03:40;22.50;99.90
15259;DHT22;34462;51.368;12.364;2022-08-03T06:06:09;22.50;99.90
15259;DHT22;34462;51.368;12.364;2022-08-03T06:08:37;22.60;99.90
15259;DHT22;34462;51.368;12.364;2022-08-03T06:11:06;22.70;99.90
15259;DHT22;34462;51.368;12.364;2022-08-03T06:13:34;22.90;99.90
15259;DHT22;34462;51.368;12.364;2022-08-03T06:16:04;22.90;99.90
15259;DHT22;34462;51.368;12.364;2022-08-03T06:18:32;23.00;99.90
15259;DHT22;34462;51.368;12.364;2022-08-03T06:21:01;23.10;99.90
15259;DHT22;34462;51.368;12.364;2022-08-03T06:23:42;23.20;99.90
15259;DHT22;34462;51.368;12.364;2022-08-03T06:26:24;23.20;99.90
15259;DHT22;34462;51.368;12.364;2022-08-03T06:28:54;23.20;99.90
15259;DHT22;34462;51.368;12.364;2022-08-03T06:31:25;23.30;99.90
15259;DHT22;34462;51.368;12.364;2022-08-03T06:34:00;23.40;99.90
15259;DHT22;34462;51.368;12.364;2022-08-03T06:36:49;23.40;99.90
15259;DHT22;34462;51.368;12.364;2022-08-03T06:39:18;23.50;99.90
15259;DHT22;34462;51.368;12.364;2022-08-03T06:41:50;23.70;99.90
15259;DHT22;34462;51.368;12.364;2022-08-03T06:44:19;23.80;99.90
15259;DHT22;34462;51.368;12.364;2022-08-03T06:46:48;23.90;99.90
15259;DHT22;34462;51.368;12.364;2022-08-03T06:49:17;24.00;99.90
15259;DHT22;34462;51.368;12.364;2022-08-03T06:51:46;24.10;99.90
15259;DHT22;34462;51.368;12.364;2022-08-03T06:54:32;24.30;99.90
15259;DHT22;34462;51.368;12.364;2022-08-03T06:57:02;24.30;99.90
15259;DHT22;34462;51.368;12.364;2022-08-03T06:59:30;24.30;99.90
15259;DHT22;34462;51.368;12.364;2022-08-03T07:02:20;24.30;99.90
15259;DHT22;34462;51.368;12.364;2022-08-03T07:04:48;24.30;99.90
15259;DHT22;34462;51.368;12.364;2022-08-03T07:07:18;24.40;99.90
15259;DHT22;34462;51.368;12.364;2022-08-03T07:09:46;24.40;99.90
15259;DHT22;34462;51.368;12.364;2022-08-03T07:12:24;24.50;99.90
15259;DHT22;34462;51.368;12.364;2022-08-03T07:14:54;24.50;99.90
15259;DHT22;34462;51.368;12.364;2022-08-03T07:17:30;24.50;99.90
15259;DHT22;34462;51.368;12.364;2022-08-03T07:20:01;24.50;99.90
15259;DHT22;34462;51.368;12.364;2022-08-03T07:22:31;24.50;99.90
15259;DHT22;34462;51.368;12.364;2022-08-03T07:25:00;24.60;99.90
15259;DHT22;34462;51.368;12.364;2022-08-03T07:27:28;24.60;99.90
15259;DHT22;34462;51.368;12.364;2022-08-03T07:29:57;24.60;99.90
15259;DHT22;34462;51.368;12.364;2022-08-03T07:32:26;24.60;99.90
15259;DHT22;34462;51.368;12.364;2022-08-03T07:34:58;24.60;99.90
15259;DHT22;34462;51.368;12.364;2022-08-03T07:37:28;24.70;99.90
15259;DHT22;34462;51.368;12.364;2022-08-03T07:39:57;24.70;99.90
15259;DHT22;34462;51.368;12.364;2022-08-03T07:42:26;24.70;99.90
15259;DHT22;34462;51.368;12.364;2022-08-03T07:44:54;24.80;99.90
15259;DHT22;34462;51.368;12.364;2022-08-03T07:47:24;24.90;99.90
15259;DHT22;34462;51.368;12.364;2022-08-03T07:50:03;25.00;99.90
15259;DHT22;34462;51.368;12.364;2022-08-03T07:52:34;25.10;99.90
15259;DHT22;34462;51.368;12.364;2022-08-03T07:55:16;25.10;99.90
15259;DHT22;34462;51.368;12.364;2022-08-03T07:57:45;25.20;99.90
15259;DHT22;34462;51.368;12.364;2022-08-03T08:00:15;25.30;99.90
15259;DHT22;34462;51.368;12.364;2022-08-03T08:02:45;25.40;99.90
15259;DHT22;34462;51.368;12.364;2022-08-03T08:05:14;25.50;99.90
15259;DHT22;34462;51.368;12.364;2022-08-03T08:07:43;25.40;99.90
15259;DHT22;34462;51.368;12.364;2022-08-03T08:10:17;25.50;99.90
15259;DHT22;34462;51.368;12.364;2022-08-03T08:12:46;25.50;99.90
15259;DHT22;34462;51.368;12.364;2022-08-03T08:15:15;25.60;99.90
15259;DHT22;34462;51.368;12.364;2022-08-03T08:17:44;25.60;99.90
15259;DHT22;34462;51.368;12.364;2022-08-03T08:20:17;25.70;99.90
15259;DHT22;34462;51.368;12.364;2022-08-03T08:22:57;25.70;99.90
15259;DHT22;34462;51.368;12.364;2022-08-03T08:25:28;25.80;99.90
15259;DHT22;34462;51.368;12.364;2022-08-03T08:27:59;25.90;99.90
15259;DHT22;34462;51.368;12.364;2022-08-03T08:30:49;26.00;99.90
15259;DHT22;34462;51.368;12.364;2022-08-03T08:33:17;26.00;99.90
15259;DHT22;34462;51.368;12.364;2022-08-03T08:35:51;26.10;99.90
15259;DHT22;34462;51.368;12.364;2022-08-03T08:38:20;26.20;99.90
15259;DHT22;34462;51.368;12.364;2022-08-03T08:40:49;26.30;99.90
15259;DHT22;34462;51.368;12.364;2022-08-03T08:43:17;26.40;99.90
15259;DHT22;34462;51.368;12.364;2022-08-03T08:45:47;26.50;99.90
15259;DHT22;34462;51.368;12.364;2022-08-03T08:48:21;26.50;99.90
15259;DHT22;34462;51.368;12.364;2022-08-03T08:50:55;26.50;99.90
15259;DHT22;34462;51.368;12.364;2022-08-03T08:53:25;26.60;99.90
15259;DHT22;34462;51.368;12.364;2022-08-03T08:55:58;26.70;99.90
15259;DHT22;34462;51.368;12.364;2022-08-03T08:58:32;26.80;99.90
15259;DHT22;34462;51.368;12.364;2022-08-03T09:01:04;26.90;99.90
15259;DHT22;34462;51.368;12.364;2022-08-03T09:03:33;27.00;99.90
15259;DHT22;34462;51.368;12.364;2022-08-03T09:06:02;27.00;99.90
15259;DHT22;34462;51.368;12.364;2022-08-03T09:08:31;27.20;99.90
15259;DHT22;34462;51.368;12.364;2022-08-03T09:11:00;27.20;99.90
15259;DHT22;34462;51.368;12.364;2022-08-03T09:13:29;27.30;99.90
15259;DHT22;34462;51.368;12.364;2022-08-03T09:16:11;27.30;99.90
15259;DHT22;34462;51.368;12.364;2022-08-03T09:18:41;27.30;99.90
15259;DHT22;34462;51.368;12.364;2022-08-03T09:21:17;27.40;99.90
15259;DHT22;34462;51.368;12.364;2022-08-03T09:24:04;27.40;99.90
15259;DHT22;34462;51.368;12.364;2022-08-03T09:26:51;27.50;99.90
15259;DHT22;34462;51.368;12.364;2022-08-03T09:29:20;27.60;99.90
15259;DHT22;34462;51.368;12.364;2022-08-03T09:31:59;27.70;99.90
15259;DHT22;34462;51.368;12.364;2022-08-03T09:34:28;27.80;99.90
15259;DHT22;34462;51.368;12.364;2022-08-03T09:36:58;27.90;99.90
15259;DHT22;34462;51.368;12.364;2022-08-03T09:39:27;28.00;99.90
15259;DHT22;34462;51.368;12.364;2022-08-03T09:42:09;28.00;99.90
15259;DHT22;34462;51.368;12.364;2022-08-03T09:44:42;28.10;99.90
15259;DHT22;34462;51.368;12.364;2022-08-03T09:47:14;28.20;99.90
15259;DHT22;34462;51.368;12.364;2022-08-03T09:49:57;28.20;99.90
15259;DHT22;34462;51.368;12.364;2022-08-03T09:52:33;28.30;99.90
15259;DHT22;34462;51.368;12.364;2022-08-03T09:55:14;28.20;99.90
15259;DHT22;34462;51.368;12.364;2022-08-03T09:58:04;28.10;99.90
15259;DHT22;34462;51.368;12.364;2022-08-03T10:00:52;28.20;99.90
15259;DHT22;34462;51.368;12.364;2022-08-03T10:03:21;28.20;99.90
15259;DHT22;34462;51.368;12.364;2022-08-03T10:05:50;28.20;99.90
15259;DHT22;34462;51.368;12.364;2022-08-03T10:08:26;28.20;99.90
15259;DHT22;34462;51.368;12.364;2022-08-03T10:10:57;28.20;99.90
15259;DHT22;34462;51.368;12.364;2022-08-03T10:13:26;28.30;99.90
15259;DHT22;34462;51.368;12.364;2022-08-03T10:15:54;28.40;99.90
15259;DHT22;34462;51.368;12.364;2022-08-03T10:18:42;28.40;99.90
15259;DHT22;34462;51.368;12.364;2022-08-03T10:21:14;28.40;99.90
15259;DHT22;34462;51.368;12.364;2022-08-03T10:23:47;28.40;99.90
15259;DHT22;34462;51.368;12.364;2022-08-03T10:26:18;28.50;99.90
15259;DHT22;34462;51.368;12.364;2022-08-03T10:28:53;28.50;99.90
15259;DHT22;34462;51.368;12.364;2022-08-03T10:31:25;28.60;99.90
15259;DHT22;34462;51.368;12.364;2022-08-03T10:34:01;28.60;99.90
15259;DHT22;34462;51.368;12.364;2022-08-03T10:36:34;28.70;99.90
15259;DHT22;34462;51.368;12.364;2022-08-03T10:39:06;28.70;99.90
15259;DHT22;34462;51.368;12.364;2022-08-03T10:41:42;28.70;99.90
15259;DHT22;34462;51.368;12.364;2022-08-03T10:44:17;28.70;99.90
15259;DHT22;34462;51.368;12.364;2022-08-03T10:46:47;28.80;99.90
15259;DHT22;34462;51.368;12.364;2022-08-03T10:49:17;28.80;99.90
15259;DHT22;34462;51.368;12.364;2022-08-03T10:52:01;28.90;99.90
15259;DHT22;34462;51.368;12.364;2022-08-03T10:54:52;29.00;99.90
15259;DHT22;34462;51.368;12.364;2022-08-03T10:57:47;29.00;99.90
15259;DHT22;34462;51.368;12.364;2022-08-03T11:00:25;29.00;99.90
15259;DHT22;34462;51.368;12.364;2022-08-03T11:03:07;28.90;99.90
15259;DHT22;34462;51.368;12.364;2022-08-03T11:05:39;29.00;99.90
15259;DHT22;34462;51.368;12.364;2022-08-03T11:08:31;29.10;99.90
15259;DHT22;34462;51.368;12.364;2022-08-03T11:11:24;29.20;99.90
15259;DHT22;34462;51.368;12.364;2022-08-03T11:13:58;29.30;99.90
15259;DHT22;34462;51.368;12.364;2022-08-03T11:16:32;29.40;99.90
15259;DHT22;34462;51.368;12.364;2022-08-03T11:19:03;29.50;99.90
15259;DHT22;34462;51.368;12.364;2022-08-03T11:21:55;29.60;99.90
15259;DHT22;34462;51.368;12.364;2022-08-03T11:24:55;29.60;99.80
15259;DHT22;34462;51.368;12.364;2022-08-03T11:27:27;29.60;99.20
15259;DHT22;34462;51.368;12.364;2022-08-03T11:30:03;29.60;99.40
15259;DHT22;34462;51.368;12.364;2022-08-03T11:32:53;29.60;99.10
15259;DHT22;34462;51.368;12.364;2022-08-03T11:35:25;29.50;98.90
15259;DHT22;34462;51.368;12.364;2022-08-03T11:38:10;29.60;98.80
15259;DHT22;34462;51.368;12.364;2022-08-03T11:40:41;29.50;98.90
15259;DHT22;34462;51.368;12.364;2022-08-03T11:43:45;29.60;99.60
15259;DHT22;34462;51.368;12.364;2022-08-03T11:46:14;29.80;96.60
15259;DHT22;34462;51.368;12.364;2022-08-03T11:49:04;29.90;96.50
15259;DHT22;34462;51.368;12.364;2022-08-03T11:51:37;30.00;96.10
15259;DHT22;34462;51.368;12.364;2022-08-03T11:54:06;30.00;96.50
15259;DHT22;34462;51.368;12.364;2022-08-03T11:56:44;30.00;95.90
15259;DHT22;34462;51.368;12.364;2022-08-03T11:59:15;29.90;95.20
15259;DHT22;34462;51.368;12.364;2022-08-03T12:01:48;29.90;96.00
15259;DHT22;34462;51.368;12.364;2022-08-03T12:04:16;30.00;96.40
15259;DHT22;34462;51.368;12.364;2022-08-03T12:06:57;30.00;96.20
15259;DHT22;34462;51.368;12.364;2022-08-03T12:09:26;30.20;95.10
15259;DHT22;34462;51.368;12.364;2022-08-03T12:11:54;30.20;95.20
15259;DHT22;34462;51.368;12.364;2022-08-03T12:14:28;30.20;92.80
15259;DHT22;34462;51.368;12.364;2022-08-03T12:17:16;30.30;93.30
15259;DHT22;34462;51.368;12.364;2022-08-03T12:19:45;30.10;93.80
15259;DHT22;34462;51.368;12.364;2022-08-03T12:22:13;29.90;95.40
15259;DHT22;34462;51.368;12.364;2022-08-03T12:24:43;30.00;95.60
15259;DHT22;34462;51.368;12.364;2022-08-03T12:27:22;30.00;95.60
15259;DHT22;34462;51.368;12.364;2022-08-03T12:29:54;30.10;95.00
15259;DHT22;34462;51.368;12.364;2022-08-03T12:32:25;30.10;93.90
15259;DHT22;34462;51.368;12.364;2022-08-03T12:34:55;30.20;93.20
15259;DHT22;34462;51.368;12.364;2022-08-03T12:37:27;30.30;93.40
15259;DHT22;34462;51.368;12.364;2022-08-03T12:39:58;30.30;93.10
15259;DHT22;34462;51.368;12.364;2022-08-03T12:42:36;30.20;93.00
15259;DHT22;34462;51.368;12.364;2022-08-03T12:45:20;30.30;93.40
15259;DHT22;34462;51.368;12.364;2022-08-03T12:47:52;30.50;93.40
15259;DHT22;34462;51.368;12.364;2022-08-03T12:50:26;30.50;93.60
15259;DHT22;34462;51.368;12.364;2022-08-03T12:52:58;30.60;93.50
15259;DHT22;34462;51.368;12.364;2022-08-03T12:55:27;30.60;93.50
15259;DHT22;34462;51.368;12.364;2022-08-03T12:58:30;30.70;93.20
15259;DHT22;34462;51.368;12.364;2022-08-03T13:01:02;30.70;91.80
15259;DHT22;34462;51.368;12.364;2022-08-03T13:03:40;30.70;92.10
15259;DHT22;34462;51.368;12.364;2022-08-03T13:06:17;30.80;91.80
15259;DHT22;34462;51.368;12.364;2022-08-03T13:08:49;30.80;92.00
15259;DHT22;34462;51.368;12.364;2022-08-03T13:11:28;30.90;91.40
15259;DHT22;34462;51.368;12.364;2022-08-03T13:14:16;30.80;91.30
15259;DHT22;34462;51.368;12.364;2022-08-03T13:16:47;30.80;91.90
15259;DHT22;34462;51.368;12.364;2022-08-03T13:19:15;30.80;91.90
15259;DHT22;34462;51.368;12.364;2022-08-03T13:21:43;30.80;92.20
15259;DHT22;34462;51.368;12.364;2022-08-03T13:24:30;30.70;91.80
15259;DHT22;34462;51.368;12.364;2022-08-03T13:26:59;30.70;92.30
15259;DHT22;34462;51.368;12.364;2022-08-03T13:29:47;30.70;92.60
15259;DHT22;34462;51.368;12.364;2022-08-03T13:32:18;30.80;92.60
15259;DHT22;34462;51.368;12.364;2022-08-03T13:34:47;30.90;92.60
15259;DHT22;34462;51.368;12.364;2022-08-03T13:37:16;30.90;92.00
15259;DHT22;34462;51.368;12.364;2022-08-03T13:39:44;30.90;91.80
15259;DHT22;34462;51.368;12.364;2022-08-03T13:42:29;30.90;91.80
15259;DHT22;34462;51.368;12.364;2022-08-03T13:44:59;30.80;91.90
15259;DHT22;34462;51.368;12.364;2022-08-03T13:47:29;30.80;92.00
15259;DHT22;34462;51.368;12.364;2022-08-03T13:49:57;30.80;92.10
15259;DHT22;34462;51.368;12.364;2022-08-03T13:52:30;30.80;91.90
15259;DHT22;34462;51.368;12.364;2022-08-03T13:54:59;30.90;92.10
15259;DHT22;34462;51.368;12.364;2022-08-03T13:57:28;30.80;91.70
15259;DHT22;34462;51.368;12.364;2022-08-03T14:00:17;30.80;92.10
15259;DHT22;34462;51.368;12.364;2022-08-03T14:02:54;30.90;91.40
15259;DHT22;34462;51.368;12.364;2022-08-03T14:05:31;30.80;91.80
15259;DHT22;34462;51.368;12.364;2022-08-03T14:08:00;30.80;92.00
15259;DHT22;34462;51.368;12.364;2022-08-03T14:10:32;30.80;91.40
15259;DHT22;34462;51.368;12.364;2022-08-03T14:13:01;30.80;91.30
15259;DHT22;34462;51.368;12.364;2022-08-03T14:15:30;30.80;91.50
15259;DHT22;34462;51.368;12.364;2022-08-03T14:18:05;30.80;91.60
15259;DHT22;34462;51.368;12.364;2022-08-03T14:20:42;30.70;91.70
15259;DHT22;34462;51.368;12.364;2022-08-03T14:23:16;30.60;91.70
15259;DHT22;34462;51.368;12.364;2022-08-03T14:25:45;30.60;91.70
15259;DHT22;34462;51.368;12.364;2022-08-03T14:28:18;30.70;91.60
15259;DHT22;34462;51.368;12.364;2022-08-03T14:30:48;30.60;91.60
15259;DHT22;34462;51.368;12.364;2022-08-03T14:33:18;30.60;91.40
15259;DHT22;34462;51.368;12.364;2022-08-03T14:35:46;30.60;91.70
15259;DHT22;34462;51.368;12.364;2022-08-03T14:38:15;30.60;91.80
15259;DHT22;34462;51.368;12.364;2022-08-03T14:40:44;30.60;91.90
15259;DHT22;34462;51.368;12.364;2022-08-03T14:43:12;30.50;91.70
15259;DHT22;34462;51.368;12.364;2022-08-03T14:45:41;30.60;91.80
15259;DHT22;34462;51.368;12.364;2022-08-03T14:48:09;30.60;91.60
15259;DHT22;34462;51.368;12.364;2022-08-03T14:50:59;30.70;91.40
15259;DHT22;34462;51.368;12.364;2022-08-03T14:53:27;30.70;91.40
15259;DHT22;34462;51.368;12.364;2022-08-03T14:55:56;30.60;91.40
15259;DHT22;34462;51.368;12.364;2022-08-03T14:58:24;30.70;91.50
15259;DHT22;34462;51.368;12.364;2022-08-03T15:00:54;30.70;91.40
15259;DHT22;34462;51.368;12.364;2022-08-03T15:03:23;30.70;91.30
15259;DHT22;34462;51.368;12.364;2022-08-03T15:05:53;30.70;91.20
15259;DHT22;34462;51.368;12.364;2022-08-03T15:08:24;30.70;91.10
15259;DHT22;34462;51.368;12.364;2022-08-03T15:10:53;30.60;91.20
15259;DHT22;34462;51.368;12.364;2022-08-03T15:13:21;30.60;91.00
15259;DHT22;34462;51.368;12.364;2022-08-03T15:15:50;30.50;91.00
15259;DHT22;34462;51.368;12.364;2022-08-03T15:18:19;30.50;91.30
15259;DHT22;34462;51.368;12.364;2022-08-03T15:20:47;30.40;91.10
15259;DHT22;34462;51.368;12.364;2022-08-03T15:23:17;30.40;91.10
15259;DHT22;34462;51.368;12.364;2022-08-03T15:25:47;30.30;90.70
15259;DHT22;34462;51.368;12.364;2022-08-03T15:28:35;30.20;90.90
15259;DHT22;34462;51.368;12.364;2022-08-03T15:31:03;30.10;91.00
15259;DHT22;34462;51.368;12.364;2022-08-03T15:33:32;30.00;91.40
15259;DHT22;34462;51.368;12.364;2022-08-03T15:36:01;29.90;92.00
15259;DHT22;34462;51.368;12.364;2022-08-03T15:38:30;29.80;91.70
15259;DHT22;34462;51.368;12.364;2022-08-03T15:40:59;29.90;91.40
15259;DHT22;34462;51.368;12.364;2022-08-03T15:43:27;30.10;91.50
15259;DHT22;34462;51.368;12.364;2022-08-03T15:45:55;30.40;91.10
15259;DHT22;34462;51.368;12.364;2022-08-03T15:48:44;30.60;90.70
15259;DHT22;34462;51.368;12.364;2022-08-03T15:51:12;30.60;91.00
15259;DHT22;34462;51.368;12.364;2022-08-03T15:53:41;30.70;90.30